Time;durP1;ratioP1;P1;durP2;ratioP2;P2;SDS_P1;SDS_P2;PMS_P1;PMS_P2;Temp;Humidity;BMP_temperature;BMP_pressure;BME280_temperature;BME280_humidity;BME280_pressure;Samples;Min_cycle;Max_cycle;Signal;HPM_P1;HPM_P2
2022/08/10 00:02:15;;;;;;;5.53;5.10;;;;;;;26.72;36.94;95207.00;6208736;28;102911;-49
2022/08/10 00:05:18;;;;;;;5.40;5.00;;;;;;;26.21;37.97;95219.75;6198236;28;104483;-49
2022/08/10 00:08:23;;;;;;;5.13;4.60;;;;;;;26.25;38.59;95219.88;6209103;28;103377;-50
2022/08/10 00:11:26;;;;;;;6.70;5.07;;;;;;;26.02;38.46;95187.22;6208095;28;103272;-49
2022/08/10 00:14:31;;;;;;;6.40;5.53;;;;;;;26.02;38.85;95211.34;6208409;28;103064;-49
2022/08/10 00:17:35;;;;;;;5.30;4.90;;;;;;;26.35;38.16;95216.00;6201982;28;104571;-49
2022/08/10 00:20:38;;;;;;;5.47;5.07;;;;;;;26.23;38.61;95209.47;6208031;28;104177;-49
2022/08/10 00:23:42;;;;;;;5.30;4.90;;;;;;;26.11;38.68;95217.44;6208415;28;104183;-49
2022/08/10 00:26:45;;;;;;;4.90;4.50;;;;;;;25.95;38.91;95211.84;6196981;28;103161;-49
2022/08/10 00:30:11;;;;;;;5.00;4.70;;;;;;;25.99;38.99;95220.81;6208782;28;103411;-49
2022/08/10 00:33:14;;;;;;;5.13;4.67;;;;;;;26.22;38.53;95191.03;6209193;28;104069;-49
2022/08/10 00:36:17;;;;;;;5.17;4.80;;;;;;;26.67;37.73;95204.50;6208481;28;103082;-50
2022/08/10 00:39:21;;;;;;;5.07;4.70;;;;;;;27.09;36.65;95212.47;6195786;28;104173;-50
2022/08/10 00:42:24;;;;;;;5.10;4.67;;;;;;;27.18;36.84;95208.53;6207864;28;104141;-50
2022/08/10 00:45:28;;;;;;;5.50;5.20;;;;;;;27.35;36.54;95204.09;6197713;28;103271;-49
2022/08/10 00:48:32;;;;;;;8.77;5.10;;;;;;;26.78;37.76;95186.09;6207628;28;103101;-50
2022/08/10 00:51:35;;;;;;;5.70;5.30;;;;;;;27.08;37.41;95213.59;6200055;28;104785;-50
2022/08/10 00:54:50;;;;;;;5.00;4.70;;;;;;;27.06;36.78;95207.75;6207909;28;104166;-49
2022/08/10 00:57:55;;;;;;;5.30;4.90;;;;;;;26.95;37.31;95207.41;6208178;28;104316;-50
2022/08/10 01:00:59;;;;;;;5.53;5.03;;;;;;;26.84;37.35;95214.28;6201448;28;103236;-50
2022/08/10 01:04:06;;;;;;;5.70;5.20;;;;;;;26.67;37.72;95193.78;6212047;28;104146;-50
2022/08/10 01:07:51;;;;;;;5.90;5.40;;;;;;;26.37;38.41;95205.72;6203452;28;105523;-50
2022/08/10 01:11:02;;;;;;;5.47;5.07;;;;;;;25.48;40.01;95205.81;6198573;28;102987;-49
2022/08/10 01:14:13;;;;;;;5.10;4.70;;;;;;;25.97;39.04;95195.44;6203352;28;104306;-50
2022/08/10 01:17:25;;;;;;;4.97;4.50;;;;;;;25.87;39.13;95206.53;6210627;28;102960;-50
2022/08/10 01:21:14;;;;;;;5.80;5.23;;;;;;;26.10;38.64;95205.16;6213159;28;104880;-49
2022/08/10 01:24:50;;;;;;;5.60;5.20;;;;;;;26.28;38.32;95211.94;6202235;28;103808;-49
2022/08/10 01:28:00;;;;;;;5.33;4.93;;;;;;;26.66;37.61;95210.22;6211301;28;103152;-50
2022/08/10 01:31:08;;;;;;;5.20;4.90;;;;;;;26.78;37.48;95203.00;6212500;28;103152;-49
2022/08/10 01:34:21;;;;;;;5.60;5.10;;;;;;;26.87;36.96;95209.03;6206114;28;103245;-50
2022/08/10 01:37:32;;;;;;;5.40;5.00;;;;;;;26.17;38.68;95205.41;6206473;28;104143;-50
2022/08/10 01:40:38;;;;;;;5.90;5.33;;;;;;;26.39;38.27;95201.59;6211251;28;104107;-49
2022/08/10 01:43:43;;;;;;;5.30;4.90;;;;;;;26.70;37.33;95198.47;6212397;28;103100;-49
2022/08/10 01:46:51;;;;;;;5.77;5.33;;;;;;;26.62;37.50;95188.59;6200127;28;104448;-49
2022/08/10 01:50:02;;;;;;;5.20;4.90;;;;;;;26.32;38.23;95192.50;6211472;28;103148;-49
2022/08/10 01:53:10;;;;;;;5.30;4.90;;;;;;;26.19;38.22;95191.66;6212590;28;104178;-48
2022/08/10 01:56:17;;;;;;;5.87;5.27;;;;;;;25.84;39.40;95196.47;6210620;28;102811;-48
2022/08/10 01:59:25;;;;;;;6.33;5.83;;;;;;;26.01;39.00;95188.31;6200314;28;105330;-48
2022/08/10 02:02:31;;;;;;;5.20;4.77;;;;;;;26.20;38.53;95196.69;6211558;28;103577;-48
2022/08/10 02:05:37;;;;;;;6.10;5.43;;;;;;;26.15;38.77;95191.53;6211664;28;103977;-48
2022/08/10 02:08:42;;;;;;;6.43;5.83;;;;;;;26.03;39.27;95193.38;6201875;28;103116;-48
2022/08/10 02:11:46;;;;;;;5.00;4.70;;;;;;;26.10;38.78;95172.97;6211189;28;104225;-48
2022/08/10 02:15:13;;;;;;;6.10;5.57;;;;;;;25.81;39.39;95191.75;6211677;28;105242;-48
2022/08/10 02:18:19;;;;;;;6.10;5.07;;;;;;;26.05;38.85;95185.81;6211824;28;103038;-48
2022/08/10 02:21:24;;;;;;;5.20;4.90;;;;;;;26.39;37.98;95195.47;6199454;28;103479;-48
2022/08/10 02:24:28;;;;;;;5.73;5.23;;;;;;;26.17;38.70;95183.16;6210436;28;103540;-49
2022/08/10 02:27:33;;;;;;;6.83;5.83;;;;;;;25.72;39.31;95175.75;6211191;28;104613;-49
2022/08/10 02:30:38;;;;;;;6.53;6.03;;;;;;;26.30;38.58;95186.69;6207862;28;103417;-49
2022/08/10 02:33:47;;;;;;;5.37;4.80;;;;;;;26.61;37.41;95180.88;6204482;28;103972;-49
2022/08/10 02:37:03;;;;;;;8.43;7.83;;;;;;;26.60;38.00;95195.41;6210654;28;104560;-48
2022/08/10 02:40:13;;;;;;;22.97;20.97;;;;;;;26.66;37.73;95200.25;6208224;28;103098;-49
2022/08/10 02:43:43;;;;;;;18.00;16.57;;;;;;;26.78;37.63;95188.78;6195729;28;105606;-49
2022/08/10 02:47:11;;;;;;;16.93;15.63;;;;;;;26.68;37.88;95200.72;6208389;28;103579;-49
2022/08/10 02:50:25;;;;;;;13.33;12.30;;;;;;;26.65;37.38;95192.53;6210003;28;104603;-48
2022/08/10 02:53:32;;;;;;;14.60;13.40;;;;;;;26.09;38.85;95190.19;6205804;28;104161;-48
2022/08/10 02:57:04;;;;;;;11.27;10.27;;;;;;;26.01;38.78;95193.69;6206897;28;104976;-47
2022/08/10 03:00:08;;;;;;;7.60;7.00;;;;;;;25.64;39.44;95204.16;6208832;28;104192;-49
2022/08/10 03:03:17;;;;;;;6.80;6.20;;;;;;;25.24;40.40;95201.03;6210233;28;103534;-48
2022/08/10 03:06:25;;;;;;;7.93;7.33;;;;;;;25.04;40.49;95202.53;6199479;28;103139;-49
2022/08/10 03:09:31;;;;;;;9.60;8.93;;;;;;;25.02;40.77;95202.03;6208102;28;104490;-48
2022/08/10 03:12:36;;;;;;;38.57;35.23;;;;;;;25.33;40.69;95200.97;6208465;28;103269;-48
2022/08/10 03:15:41;;;;;;;22.13;20.30;;;;;;;25.63;39.64;95209.84;6208076;28;103090;-47
2022/08/10 03:18:46;;;;;;;20.80;19.20;;;;;;;25.88;39.65;95208.13;6199078;28;104356;-48
2022/08/10 03:21:53;;;;;;;7.80;7.27;;;;;;;25.67;39.63;95213.44;6207916;28;103002;-48
2022/08/10 03:24:57;;;;;;;7.00;6.50;;;;;;;25.46;39.67;95199.22;6208688;28;103083;-48
2022/08/10 03:28:00;;;;;;;7.40;6.80;;;;;;;25.62;39.71;95219.00;6200683;28;103408;-49
2022/08/10 03:31:04;;;;;;;8.47;7.77;;;;;;;25.66;39.89;95219.91;6206023;28;103791;-48
2022/08/10 03:34:07;;;;;;;6.03;5.53;;;;;;;25.39;39.76;95213.13;6210096;28;103138;-49
2022/08/10 03:37:32;;;;;;;9.90;9.07;;;;;;;25.24;39.87;95213.66;6207065;28;102875;-49
2022/08/10 03:40:38;;;;;;;6.07;5.57;;;;;;;25.16;40.16;95215.22;6197373;28;103225;-48
2022/08/10 03:43:49;;;;;;;9.20;6.50;;;;;;;25.68;39.07;95233.78;6209646;28;104092;-52
2022/08/10 03:46:54;;;;;;;7.57;6.83;;;;;;;25.94;39.41;95244.38;6201288;28;104334;-53
2022/08/10 03:49:59;;;;;;;27.40;25.10;;;;;;;25.81;39.99;95234.66;6192364;28;104238;-52
2022/08/10 03:53:25;;;;;;;12.73;11.47;;;;;;;25.92;39.07;95235.84;6203503;28;105007;-51
2022/08/10 03:56:48;;;;;;;10.57;9.63;;;;;;;25.91;39.32;95240.44;6206674;28;104298;-52
2022/08/10 03:59:51;;;;;;;9.00;7.23;;;;;;;25.47;40.36;95236.41;6209371;28;104866;-49
2022/08/10 04:02:56;;;;;;;6.70;6.20;;;;;;;25.40;40.63;95246.84;6196926;28;103372;-50
2022/08/10 04:06:01;;;;;;;15.73;14.40;;;;;;;25.52;40.08;95244.25;6209937;28;104068;-52
2022/08/10 04:09:05;;;;;;;12.23;7.57;;;;;;;25.47;39.96;95247.13;6208903;28;103265;-53
2022/08/10 04:12:09;;;;;;;7.63;6.77;;;;;;;25.87;39.78;95244.06;6208532;28;103523;-52
2022/08/10 04:15:12;;;;;;;7.37;6.37;;;;;;;26.13;39.37;95246.63;6199083;28;105258;-52
2022/08/10 04:18:15;;;;;;;7.33;6.43;;;;;;;25.81;39.98;95250.75;6207837;28;103729;-52
2022/08/10 04:21:23;;;;;;;7.20;6.50;;;;;;;25.53;40.50;95248.50;6206542;28;104237;-52
2022/08/10 04:24:31;;;;;;;5.80;5.30;;;;;;;26.04;39.62;95260.09;6200590;28;104305;-53
2022/08/10 04:27:35;;;;;;;6.30;5.80;;;;;;;26.19;38.90;95261.41;6204351;28;104422;-52
2022/08/10 04:30:40;;;;;;;6.90;6.17;;;;;;;26.44;38.37;95254.28;6206057;28;104337;-52
2022/08/10 04:33:48;;;;;;;6.83;6.13;;;;;;;26.41;38.80;95249.59;6207720;28;103286;-54
2022/08/10 04:36:53;;;;;;;6.33;5.83;;;;;;;25.77;40.39;95247.94;6192930;28;103465;-53
2022/08/10 04:39:58;;;;;;;6.40;5.80;;;;;;;25.95;40.26;95249.41;6209007;28;103112;-53
2022/08/10 04:43:02;;;;;;;7.10;6.50;;;;;;;25.73;40.83;95246.22;6209077;28;103118;-52
2022/08/10 04:46:15;;;;;;;7.53;6.93;;;;;;;25.92;40.90;95250.06;6204244;28;103192;-53
2022/08/10 04:49:38;;;;;;;12.10;6.60;;;;;;;25.61;40.08;95245.03;6199199;28;102927;-50
2022/08/10 04:52:58;;;;;;;18.00;7.90;;;;;;;25.54;41.29;95249.28;6208303;28;103124;-50
2022/08/10 04:56:03;;;;;;;13.20;8.33;;;;;;;25.17;42.17;95248.16;6210208;28;103191;-51
2022/08/10 04:59:08;;;;;;;11.60;8.63;;;;;;;24.89;43.22;95245.09;6200224;28;104214;-50
2022/08/10 05:02:11;;;;;;;7.87;7.07;;;;;;;25.08;42.63;95245.53;6209621;28;103289;-50
2022/08/10 05:05:33;;;;;;;9.40;8.43;;;;;;;25.25;42.46;95236.66;6210086;28;103278;-50
2022/08/10 05:08:36;;;;;;;8.33;7.70;;;;;;;25.24;42.81;95245.78;6209350;28;103189;-50
2022/08/10 05:11:41;;;;;;;10.77;7.40;;;;;;;25.55;42.24;95243.63;6197010;28;103319;-50
2022/08/10 05:14:44;;;;;;;10.10;7.70;;;;;;;25.94;42.31;95241.69;6205665;28;103679;-51
2022/08/10 05:17:47;;;;;;;14.27;7.60;;;;;;;26.34;41.70;95239.34;6209071;28;103870;-52
2022/08/10 05:21:10;;;;;;;11.23;7.77;;;;;;;26.72;41.70;95246.50;6204449;28;102816;-52
2022/08/10 05:24:33;;;;;;;16.13;7.63;;;;;;;26.91;42.71;95254.06;6208246;28;104987;-51
2022/08/10 05:27:38;;;;;;;9.20;7.30;;;;;;;27.15;41.13;95243.34;6209577;28;103232;-51
2022/08/10 05:30:41;;;;;;;19.50;7.50;;;;;;;27.30;41.30;95245.44;6209532;28;103994;-49
2022/08/10 05:33:44;;;;;;;8.83;7.63;;;;;;;27.42;40.70;95240.06;6199476;28;103027;-51
2022/08/10 05:36:48;;;;;;;8.23;7.53;;;;;;;27.43;41.54;95249.69;6209420;28;103184;-51
2022/08/10 05:39:52;;;;;;;8.83;7.90;;;;;;;27.17;42.36;95247.28;6209696;28;103160;-51
2022/08/10 05:42:57;;;;;;;9.43;8.40;;;;;;;27.07;42.01;95247.72;6208704;28;102984;-50
2022/08/10 05:46:00;;;;;;;8.90;8.20;;;;;;;26.97;42.33;95242.75;6202665;28;103970;-50
2022/08/10 05:49:22;;;;;;;8.40;7.70;;;;;;;26.83;43.31;95248.44;6212949;28;103006;-51
2022/08/10 05:52:25;;;;;;;9.23;8.43;;;;;;;26.71;43.40;95237.63;6212431;28;103208;-49
2022/08/10 05:55:30;;;;;;;8.73;8.00;;;;;;;26.64;43.82;95240.09;6207807;28;103754;-51
2022/08/10 05:58:35;;;;;;;9.57;8.83;;;;;;;26.61;43.90;95251.47;6209891;28;104121;-52
2022/08/10 06:01:42;;;;;;;9.27;8.47;;;;;;;26.58;44.15;95249.44;6214157;28;104866;-51
2022/08/10 06:05:09;;;;;;;9.27;8.50;;;;;;;26.55;44.55;95252.78;6213699;28;102907;-50
2022/08/10 06:08:17;;;;;;;10.00;9.20;;;;;;;26.77;43.98;95249.75;6202503;28;104655;-49
2022/08/10 06:11:23;;;;;;;9.50;8.70;;;;;;;26.91;43.01;95237.94;6213289;28;104400;-51
2022/08/10 06:15:02;;;;;;;9.43;8.73;;;;;;;27.16;42.24;95253.00;6212250;28;102903;-51
2022/08/10 06:18:14;;;;;;;9.27;8.57;;;;;;;27.19;42.74;95249.63;6207668;28;104068;-51
2022/08/10 06:21:19;;;;;;;9.03;8.33;;;;;;;27.29;42.38;95243.88;6209543;28;102992;-52
2022/08/10 06:24:23;;;;;;;8.20;7.50;;;;;;;27.37;41.92;95244.88;6212582;28;104298;-51
2022/08/10 06:27:32;;;;;;;9.20;8.60;;;;;;;27.42;41.85;95252.72;6212054;28;103303;-51
2022/08/10 06:30:39;;;;;;;9.40;8.60;;;;;;;27.37;41.64;95242.97;6201948;28;103261;-51
2022/08/10 06:33:45;;;;;;;10.53;9.70;;;;;;;27.42;42.02;95250.81;6212622;28;104392;-53
2022/08/10 06:36:49;;;;;;;9.90;8.90;;;;;;;27.57;42.02;95253.97;6212551;28;103533;-52
2022/08/10 06:39:53;;;;;;;9.80;8.97;;;;;;;27.66;41.88;95268.06;6211699;28;103024;-51
2022/08/10 06:43:00;;;;;;;9.77;9.07;;;;;;;27.70;41.70;95260.91;6200773;28;103007;-51
2022/08/10 06:46:08;;;;;;;9.70;8.83;;;;;;;27.62;41.31;95261.81;6211825;28;104393;-53
2022/08/10 06:49:13;;;;;;;9.43;8.73;;;;;;;27.63;41.34;95258.78;6212335;28;104176;-51
2022/08/10 06:52:18;;;;;;;8.60;7.83;;;;;;;27.66;40.81;95249.25;6206839;28;104387;-51
2022/08/10 06:55:23;;;;;;;9.70;8.80;;;;;;;27.61;41.46;95254.88;6209497;28;102998;-49
2022/08/10 06:58:52;;;;;;;10.77;9.87;;;;;;;27.71;41.44;95259.78;6212034;28;105413;-51
2022/08/10 07:02:02;;;;;;;10.37;9.43;;;;;;;27.46;41.83;95253.63;6212013;28;103198;-54
2022/08/10 07:05:08;;;;;;;10.03;9.10;;;;;;;27.33;41.54;95260.09;6200589;28;104085;-51
2022/08/10 07:08:12;;;;;;;10.77;9.97;;;;;;;27.05;41.87;95241.09;6212273;28;103526;-50
2022/08/10 07:11:18;;;;;;;9.73;8.90;;;;;;;27.21;41.62;95250.06;6212102;28;104190;-51
2022/08/10 07:14:23;;;;;;;9.43;8.33;;;;;;;27.27;41.35;95253.38;6209778;28;103019;-52
2022/08/10 07:17:30;;;;;;;10.43;9.10;;;;;;;27.34;40.93;95243.63;6205244;28;104894;-53
2022/08/10 07:20:42;;;;;;;12.50;8.80;;;;;;;27.44;41.84;95248.59;6211420;28;102711;-51
2022/08/10 07:23:47;;;;;;;11.03;9.00;;;;;;;27.41;41.45;95235.03;6211352;28;102907;-50
2022/08/10 07:27:04;;;;;;;14.23;9.30;;;;;;;27.49;40.75;95249.47;6202692;28;104008;-50
2022/08/10 07:30:09;;;;;;;9.80;8.90;;;;;;;27.48;41.50;95248.69;6212314;28;105108;-51
2022/08/10 07:33:16;;;;;;;11.10;8.90;;;;;;;27.41;41.56;95241.19;6211881;28;103314;-50
2022/08/10 07:36:21;;;;;;;11.10;9.53;;;;;;;27.64;41.33;95240.75;6211051;28;103171;-52
2022/08/10 07:39:29;;;;;;;10.70;9.67;;;;;;;27.87;40.48;95239.19;6201165;28;103388;-51
2022/08/10 07:42:57;;;;;;;10.10;9.33;;;;;;;28.06;40.31;95235.94;6206750;28;105237;-51
2022/08/10 07:46:02;;;;;;;9.93;9.13;;;;;;;28.23;39.83;95243.72;6207937;28;104253;-52
2022/08/10 07:49:21;;;;;;;9.53;8.73;;;;;;;28.36;39.27;95237.16;6200700;28;103444;-52
2022/08/10 07:52:26;;;;;;;9.93;9.03;;;;;;;28.49;39.34;95246.03;6210308;28;104199;-50
2022/08/10 07:55:30;;;;;;;11.57;9.77;;;;;;;28.49;38.97;95237.16;6210318;28;104197;-51
2022/08/10 07:58:59;;;;;;;9.83;9.03;;;;;;;28.60;39.36;95228.25;6209902;28;105211;-50
2022/08/10 08:02:05;;;;;;;9.47;8.53;;;;;;;28.61;38.94;95221.75;6200906;28;104026;-50
2022/08/10 08:05:12;;;;;;;9.37;8.67;;;;;;;28.65;38.84;95217.25;6208028;28;103549;-50
2022/08/10 08:08:37;;;;;;;9.30;8.37;;;;;;;28.59;38.98;95207.06;6206089;28;105471;-51
2022/08/10 08:11:43;;;;;;;10.43;9.60;;;;;;;28.75;38.31;95228.66;6200770;28;103146;-51
2022/08/10 08:14:49;;;;;;;9.97;9.07;;;;;;;28.78;38.24;95219.88;6202142;28;103203;-51
2022/08/10 08:17:54;;;;;;;9.87;9.00;;;;;;;28.81;38.33;95219.97;6207125;28;103478;-52
2022/08/10 08:21:05;;;;;;;9.47;8.77;;;;;;;28.84;37.79;95213.09;6207415;28;103737;-50
2022/08/10 08:24:31;;;;;;;9.33;8.43;;;;;;;28.87;38.11;95223.97;6200570;28;105151;-49
2022/08/10 08:27:38;;;;;;;10.10;9.27;;;;;;;28.87;38.03;95217.78;6210859;28;103992;-49
2022/08/10 08:30:42;;;;;;;8.83;8.23;;;;;;;28.89;37.99;95210.16;6210853;28;103953;-50
2022/08/10 08:33:52;;;;;;;8.97;8.30;;;;;;;28.93;37.93;95216.44;6208763;28;104455;-50
2022/08/10 08:36:58;;;;;;;8.80;8.10;;;;;;;28.94;37.50;95212.59;6203467;28;103043;-50
2022/08/10 08:40:02;;;;;;;9.00;8.20;;;;;;;28.94;37.50;95207.22;6210252;28;103006;-50
2022/08/10 08:43:29;;;;;;;9.17;8.43;;;;;;;28.93;38.12;95203.75;6209825;28;103228;-50
2022/08/10 08:46:50;;;;;;;8.97;8.10;;;;;;;28.74;36.27;95208.22;6197295;28;103953;-51
2022/08/10 08:50:11;;;;;;;10.23;8.47;;;;;;;28.41;38.59;95185.00;6205776;28;103622;-51
2022/08/10 08:53:31;;;;;;;8.50;7.80;;;;;;;28.52;39.21;95209.53;6210044;28;103201;-50
2022/08/10 08:57:02;;;;;;;13.53;9.20;;;;;;;27.80;39.56;95209.34;6204334;28;105066;-50
2022/08/10 09:00:12;;;;;;;8.60;7.70;;;;;;;27.09;40.06;95205.19;6204708;28;104070;-50
2022/08/10 09:03:51;;;;;;;9.47;8.40;;;;;;;27.35;40.09;95194.13;6209424;28;103352;-49
2022/08/10 09:07:22;;;;;;;11.13;8.80;;;;;;;27.53;39.40;95200.06;6209862;28;102978;-53
2022/08/10 09:10:54;;;;;;;9.03;8.33;;;;;;;27.77;38.98;95200.06;6198570;28;102882;-51
2022/08/10 09:14:04;;;;;;;13.73;9.00;;;;;;;28.00;38.68;95189.63;6209733;28;103310;-50
2022/08/10 09:17:18;;;;;;;9.70;8.90;;;;;;;28.12;38.15;95180.75;6210157;28;104069;-51
2022/08/10 09:20:33;;;;;;;9.67;8.77;;;;;;;28.26;38.35;95193.81;6202289;28;104030;-51
2022/08/10 09:23:44;;;;;;;10.03;9.27;;;;;;;28.36;38.34;95190.63;6214135;28;104069;-51
2022/08/10 09:27:18;;;;;;;9.60;8.90;;;;;;;28.47;38.10;95189.03;6212960;28;102977;-51
2022/08/10 09:30:30;;;;;;;9.13;8.43;;;;;;;28.86;39.05;95179.28;6214050;28;103996;-52
2022/08/10 09:33:49;;;;;;;9.70;8.90;;;;;;;28.76;37.75;95179.81;6204573;28;102965;-51
2022/08/10 09:37:20;;;;;;;9.50;8.63;;;;;;;28.66;37.78;95183.00;6213002;28;103047;-52
2022/08/10 09:40:29;;;;;;;8.63;7.90;;;;;;;28.61;37.92;95172.50;6212892;28;102982;-51
2022/08/10 09:44:06;;;;;;;9.43;8.63;;;;;;;28.68;38.14;95175.38;6203905;28;104932;-51
2022/08/10 09:47:18;;;;;;;9.53;8.10;;;;;;;28.64;37.34;95172.59;6213386;28;104358;-52
2022/08/10 09:50:56;;;;;;;10.73;7.60;;;;;;;28.56;37.39;95164.66;6213381;28;105963;-51
2022/08/10 09:54:43;;;;;;;7.77;7.10;;;;;;;28.58;37.71;95171.28;6203233;28;102779;-52
2022/08/10 09:57:56;;;;;;;9.53;8.67;;;;;;;28.47;37.49;95161.34;6213438;28;103420;-51
2022/08/10 10:01:11;;;;;;;9.70;8.87;;;;;;;28.19;38.52;95166.69;6213264;28;103015;-52
2022/08/10 10:04:47;;;;;;;9.83;8.20;;;;;;;28.02;38.41;95163.16;6212897;28;105487;-51
2022/08/10 10:07:57;;;;;;;11.67;10.57;;;;;;;27.84;38.45;95153.75;6207276;28;103197;-51
2022/08/10 10:11:11;;;;;;;12.03;10.63;;;;;;;27.92;38.82;95169.03;6212687;28;104132;-51
2022/08/10 10:14:25;;;;;;;11.50;10.53;;;;;;;27.86;38.62;95169.56;6212530;28;102935;-51
2022/08/10 10:17:42;;;;;;;11.43;10.43;;;;;;;27.87;38.85;95171.94;6201814;28;103073;-50
2022/08/10 10:20:55;;;;;;;11.43;10.40;;;;;;;27.90;38.58;95159.72;6212322;28;103002;-51
2022/08/10 10:24:11;;;;;;;10.67;9.60;;;;;;;28.14;37.99;95161.56;6212144;28;103033;-52
2022/08/10 10:27:38;;;;;;;8.57;7.80;;;;;;;28.26;37.79;95145.38;6211016;28;103759;-52
2022/08/10 10:31:02;;;;;;;11.13;10.23;;;;;;;28.39;37.40;95152.25;6207152;28;103976;-51
2022/08/10 10:34:15;;;;;;;10.13;9.20;;;;;;;28.38;37.00;95149.91;6211947;28;103316;-51
2022/08/10 10:37:20;;;;;;;11.57;7.90;;;;;;;28.44;37.78;95149.31;6206719;28;103263;-51
2022/08/10 10:40:49;;;;;;;8.80;8.20;;;;;;;28.44;38.09;95146.63;6201778;28;103217;-51
2022/08/10 10:44:04;;;;;;;8.83;8.10;;;;;;;28.26;37.95;95110.38;6206397;28;103223;-51
2022/08/10 10:47:27;;;;;;;8.73;8.03;;;;;;;28.52;37.65;95140.31;6190444;28;104576;-51
2022/08/10 10:50:41;;;;;;;8.70;7.97;;;;;;;28.55;36.95;95136.94;6206030;28;103847;-51
2022/08/10 10:53:49;;;;;;;8.97;8.10;;;;;;;28.63;37.20;95136.00;6182459;28;103188;-51
2022/08/10 10:57:01;;;;;;;7.90;7.20;;;;;;;28.48;38.11;95126.00;6187692;28;103928;-52
2022/08/10 11:00:08;;;;;;;8.20;7.60;;;;;;;28.51;37.65;95125.28;6205632;28;103233;-52
2022/08/10 11:03:34;;;;;;;8.87;7.90;;;;;;;28.53;38.14;95133.81;6182765;28;103634;-51
2022/08/10 11:06:57;;;;;;;9.63;8.50;;;;;;;28.58;38.01;95130.88;6210788;28;104121;-51
2022/08/10 11:10:06;;;;;;;10.83;8.67;;;;;;;28.45;38.82;95129.34;6211750;28;103190;-48
2022/08/10 11:13:37;;;;;;;9.90;8.77;;;;;;;28.29;38.71;95128.53;6205308;28;103622;-50
2022/08/10 13:40:19;;;;;;;9.80;8.90;;;;;;;28.35;41.00;95108.31;6186396;27;2118269;-53
2022/08/10 13:43:25;;;;;;;7.13;6.50;;;;;;;28.31;40.02;95113.59;6217945;28;103910;-53
2022/08/10 13:46:29;;;;;;;8.07;6.33;;;;;;;28.13;39.73;95122.31;6211142;28;104895;-52
2022/08/10 13:49:45;;;;;;;6.57;5.83;;;;;;;28.01;40.37;95123.91;6211072;28;103957;-54
2022/08/10 13:52:52;;;;;;;7.13;6.20;;;;;;;28.20;39.88;95133.25;6196638;28;104028;-52
2022/08/10 13:55:58;;;;;;;7.10;5.90;;;;;;;28.38;40.86;95137.22;6213317;28;103198;-53
2022/08/10 13:59:02;;;;;;;7.70;7.00;;;;;;;28.49;41.32;95138.31;6207029;28;102977;-53
2022/08/10 14:02:14;;;;;;;7.67;7.17;;;;;;;28.61;41.40;95135.56;6207211;28;102864;-55
2022/08/10 14:05:26;;;;;;;8.60;7.40;;;;;;;28.68;42.36;95139.56;6201225;28;104121;-53
2022/08/10 14:08:34;;;;;;;10.40;9.60;;;;;;;28.70;42.09;95143.47;6202177;28;103393;-52
2022/08/10 14:11:41;;;;;;;11.43;9.70;;;;;;;28.74;42.25;95144.38;6191705;28;103935;-52
2022/08/10 14:14:49;;;;;;;10.33;9.30;;;;;;;28.72;41.44;95146.59;6173194;28;103105;-54
2022/08/10 14:17:57;;;;;;;14.27;10.10;;;;;;;28.80;41.79;95142.97;6187285;28;104064;-54
2022/08/10 14:21:00;;;;;;;16.40;14.27;;;;;;;28.99;43.67;95142.28;6174440;28;102929;-59
2022/08/10 14:24:20;;;;;;;24.53;12.93;;;;;;;28.78;42.27;95137.16;6190077;28;104609;-60
2022/08/10 14:27:24;;;;;;;19.10;9.47;;;;;;;28.62;41.16;95139.84;6155667;28;102902;-58
2022/08/10 14:30:56;;;;;;;12.20;8.50;;;;;;;28.49;41.47;95138.31;6172792;28;103045;-61
2022/08/10 14:34:02;;;;;;;11.40;8.33;;;;;;;28.45;41.92;95134.72;6179211;28;104307;-59
2022/08/10 14:37:09;;;;;;;9.30;8.40;;;;;;;28.29;40.86;95142.00;6164784;28;103045;-59
2022/08/10 14:40:15;;;;;;;8.87;7.90;;;;;;;28.10;41.62;95136.47;6168401;28;105355;-59
2022/08/10 14:43:25;;;;;;;16.83;7.70;;;;;;;28.16;41.80;95143.94;6189806;28;103546;-59
2022/08/10 14:46:33;;;;;;;9.10;7.70;;;;;;;28.18;42.07;95155.13;6176131;28;102953;-60
2022/08/10 14:49:38;;;;;;;10.33;8.53;;;;;;;28.16;41.34;95162.00;6162870;28;103358;-61
2022/08/10 14:53:06;;;;;;;15.50;8.43;;;;;;;28.11;41.51;95154.97;6174250;28;102959;-61
2022/08/10 14:56:14;;;;;;;9.20;7.83;;;;;;;28.20;41.07;95169.03;6177160;28;103263;-61
2022/08/10 14:59:19;;;;;;;13.17;7.50;;;;;;;28.26;40.45;95166.91;6168773;28;103219;-60
2022/08/10 15:02:25;;;;;;;9.17;7.37;;;;;;;28.23;39.37;95170.28;6179692;28;104535;-60
2022/08/10 15:05:44;;;;;;;9.73;7.30;;;;;;;28.20;39.75;95173.63;6169299;28;103224;-60
2022/08/10 15:08:49;;;;;;;8.10;7.30;;;;;;;28.10;40.74;95168.75;6177245;28;104044;-56
2022/08/10 15:11:55;;;;;;;9.87;6.87;;;;;;;28.25;40.48;95178.78;6164035;28;103800;-60
2022/08/10 15:15:24;;;;;;;7.13;6.63;;;;;;;28.19;39.97;95178.22;6171235;28;105108;-61
2022/08/10 15:18:32;;;;;;;7.70;7.10;;;;;;;28.05;39.97;95178.59;6170460;28;103166;-61
2022/08/10 15:21:39;;;;;;;10.13;6.33;;;;;;;27.83;41.42;95184.47;6166003;28;102889;-60
2022/08/10 15:25:04;;;;;;;7.70;7.00;;;;;;;28.00;40.45;95186.16;6158035;28;104063;-60
2022/08/10 15:28:12;;;;;;;9.00;7.00;;;;;;;27.94;40.62;95177.53;6173608;28;103102;-60
2022/08/10 15:31:22;;;;;;;7.90;7.20;;;;;;;28.05;41.45;95181.28;6162231;28;104330;-61
2022/08/10 15:37:49;;;;;;;7.70;6.97;;;;;;;28.00;41.51;95186.16;6162570;28;104242;-60
2022/08/10 15:40:59;;;;;;;7.80;7.00;;;;;;;27.80;39.86;95189.75;6161082;28;102805;-55
2022/08/10 15:44:03;;;;;;;7.40;6.80;;;;;;;27.84;42.14;95187.94;6143198;28;103953;-60
2022/08/10 15:47:10;;;;;;;7.83;7.03;;;;;;;27.67;42.47;95187.06;6134886;28;105294;-59
2022/08/10 15:50:22;;;;;;;8.83;8.13;;;;;;;27.57;42.17;95194.81;6147996;28;104099;-60
2022/08/10 15:53:30;;;;;;;8.83;8.00;;;;;;;27.51;42.70;95193.47;6159195;28;103173;-59
2022/08/10 15:56:51;;;;;;;9.40;8.27;;;;;;;27.25;43.45;95193.78;6141325;28;104211;-59
2022/08/10 16:00:01;;;;;;;9.77;8.23;;;;;;;27.33;43.53;95184.84;6153838;28;103956;-59
2022/08/10 16:03:14;;;;;;;13.70;8.20;;;;;;;27.25;44.02;95188.41;6173639;28;106424;-60
2022/08/10 16:06:27;;;;;;;9.40;8.67;;;;;;;27.10;44.11;95182.56;6153346;28;103285;-60
2022/08/10 16:09:34;;;;;;;7.77;7.27;;;;;;;27.09;44.41;95186.38;6152107;28;102839;-60
2022/08/10 16:13:01;;;;;;;8.40;7.70;;;;;;;27.21;44.05;95193.66;6161673;28;102985;-59
2022/08/10 16:16:32;;;;;;;8.80;8.20;;;;;;;27.37;44.04;95191.91;6171395;28;105122;-59
2022/08/10 16:19:45;;;;;;;9.00;8.20;;;;;;;27.33;44.60;95195.59;6144329;28;103184;-61
2022/08/10 16:22:49;;;;;;;8.93;8.00;;;;;;;27.40;43.69;95190.47;6160807;28;104136;-59
2022/08/10 16:25:56;;;;;;;9.87;7.03;;;;;;;27.33;44.02;95207.13;6140056;28;103008;-60
2022/08/10 16:29:05;;;;;;;7.30;6.70;;;;;;;27.31;43.71;95204.00;6139916;28;103976;-60
2022/08/10 16:32:10;;;;;;;6.67;6.23;;;;;;;27.35;43.24;95199.50;6132927;28;103183;-59
2022/08/10 16:35:19;;;;;;;6.63;6.20;;;;;;;27.63;42.72;95204.22;6144249;28;103114;-60
2022/08/10 16:38:24;;;;;;;8.30;7.17;;;;;;;27.65;42.03;95208.13;6160238;28;103982;-58
2022/08/10 16:41:29;;;;;;;7.87;7.17;;;;;;;27.63;42.73;95209.59;6146568;28;103065;-62
2022/08/10 16:44:57;;;;;;;7.60;7.10;;;;;;;27.59;42.34;95208.72;6144981;28;103116;-57
2022/08/10 16:48:01;;;;;;;7.53;6.83;;;;;;;27.66;42.04;95215.09;6153702;28;104270;-57
2022/08/10 16:51:08;;;;;;;7.10;6.50;;;;;;;27.77;42.64;95215.41;6158378;28;103219;-59
2022/08/10 16:54:20;;;;;;;6.63;6.13;;;;;;;27.69;42.27;95222.47;6143520;28;104068;-60
2022/08/10 16:57:30;;;;;;;5.77;5.37;;;;;;;27.82;41.33;95222.47;6146374;28;103966;-57
2022/08/10 17:00:34;;;;;;;6.00;5.60;;;;;;;27.83;41.88;95229.41;6142761;28;103114;-58
2022/08/10 17:03:40;;;;;;;6.13;5.63;;;;;;;27.72;41.36;95223.69;6150914;28;103289;-58
2022/08/10 17:07:10;;;;;;;6.37;5.70;;;;;;;27.61;42.13;95233.34;6138049;28;103584;-58
2022/08/10 17:10:16;;;;;;;5.63;5.23;;;;;;;27.49;41.78;95242.19;6142290;28;104078;-60
2022/08/10 17:13:22;;;;;;;6.97;5.97;;;;;;;27.31;42.34;95238.94;6145428;28;103382;-60